sensor_id;sensor_type;location;lat;lon;timestamp;temperature;humidity
48416;DHT22;34227;51.840;4.146;2022-10-31T00:00:17;13.50;97.30
48416;DHT22;34227;51.840;4.146;2022-10-31T00:02:43;13.40;97.30
48416;DHT22;34227;51.840;4.146;2022-10-31T00:05:10;13.40;97.30
48416;DHT22;34227;51.840;4.146;2022-10-31T00:07:35;13.40;97.30
48416;DHT22;34227;51.840;4.146;2022-10-31T00:10:01;13.40;97.40
48416;DHT22;34227;51.840;4.146;2022-10-31T00:12:27;13.40;97.40
48416;DHT22;34227;51.840;4.146;2022-10-31T00:14:53;13.40;97.30
48416;DHT22;34227;51.840;4.146;2022-10-31T00:20:07;13.40;97.40
48416;DHT22;34227;51.840;4.146;2022-10-31T00:25:18;13.30;97.40
48416;DHT22;34227;51.840;4.146;2022-10-31T00:30:48;13.30;97.40
48416;DHT22;34227;51.840;4.146;2022-10-31T00:33:15;13.30;97.30
48416;DHT22;34227;51.840;4.146;2022-10-31T00:41:13;13.30;97.40
48416;DHT22;34227;51.840;4.146;2022-10-31T00:43:39;13.30;97.40
48416;DHT22;34227;51.840;4.146;2022-10-31T00:46:05;13.30;97.40
48416;DHT22;34227;51.840;4.146;2022-10-31T00:48:32;13.20;97.40
48416;DHT22;34227;51.840;4.146;2022-10-31T00:50:58;13.20;97.40
48416;DHT22;34227;51.840;4.146;2022-10-31T00:53:25;13.20;97.40
48416;DHT22;34227;51.840;4.146;2022-10-31T00:55:50;13.20;97.40
48416;DHT22;34227;51.840;4.146;2022-10-31T00:58:16;13.20;97.40
48416;DHT22;34227;51.840;4.146;2022-10-31T01:00:42;13.20;97.40
48416;DHT22;34227;51.840;4.146;2022-10-31T01:03:07;13.10;97.40
48416;DHT22;34227;51.840;4.146;2022-10-31T01:05:33;13.10;97.40
48416;DHT22;34227;51.840;4.146;2022-10-31T01:07:59;13.10;97.40
48416;DHT22;34227;51.840;4.146;2022-10-31T01:10:25;13.10;97.40
48416;DHT22;34227;51.840;4.146;2022-10-31T01:12:51;13.10;97.40
48416;DHT22;34227;51.840;4.146;2022-10-31T01:15:21;13.10;97.50
48416;DHT22;34227;51.840;4.146;2022-10-31T01:17:47;13.00;97.50
48416;DHT22;34227;51.840;4.146;2022-10-31T01:20:13;13.10;97.50
48416;DHT22;34227;51.840;4.146;2022-10-31T01:22:42;13.00;97.50
48416;DHT22;34227;51.840;4.146;2022-10-31T01:25:08;13.00;97.50
48416;DHT22;34227;51.840;4.146;2022-10-31T01:27:37;13.00;97.40
48416;DHT22;34227;51.840;4.146;2022-10-31T01:30:03;13.00;97.50
48416;DHT22;34227;51.840;4.146;2022-10-31T01:32:29;13.00;97.50
48416;DHT22;34227;51.840;4.146;2022-10-31T01:34:54;12.90;97.50
48416;DHT22;34227;51.840;4.146;2022-10-31T01:37:20;12.90;97.50
48416;DHT22;34227;51.840;4.146;2022-10-31T01:39:47;12.90;97.50
48416;DHT22;34227;51.840;4.146;2022-10-31T01:42:15;12.90;97.40
48416;DHT22;34227;51.840;4.146;2022-10-31T01:47:13;12.80;97.40
48416;DHT22;34227;51.840;4.146;2022-10-31T01:49:40;12.80;97.50
48416;DHT22;34227;51.840;4.146;2022-10-31T01:52:09;12.80;97.80
48416;DHT22;34227;51.840;4.146;2022-10-31T01:54:39;12.80;97.50
48416;DHT22;34227;51.840;4.146;2022-10-31T01:57:06;12.80;97.60
48416;DHT22;34227;51.840;4.146;2022-10-31T01:59:35;12.70;97.50
48416;DHT22;34227;51.840;4.146;2022-10-31T02:02:03;12.70;97.50
48416;DHT22;34227;51.840;4.146;2022-10-31T02:04:28;12.70;97.50
48416;DHT22;34227;51.840;4.146;2022-10-31T02:07:00;12.70;97.50
48416;DHT22;34227;51.840;4.146;2022-10-31T02:09:27;12.70;97.50
48416;DHT22;34227;51.840;4.146;2022-10-31T02:11:54;12.60;97.50
48416;DHT22;34227;51.840;4.146;2022-10-31T02:14:22;12.60;97.60
48416;DHT22;34227;51.840;4.146;2022-10-31T02:22:19;12.60;97.50
48416;DHT22;34227;51.840;4.146;2022-10-31T02:40:18;12.40;97.50
48416;DHT22;34227;51.840;4.146;2022-10-31T02:42:51;12.40;97.50
48416;DHT22;34227;51.840;4.146;2022-10-31T02:47:54;12.40;97.50
48416;DHT22;34227;51.840;4.146;2022-10-31T02:50:23;12.40;97.50
48416;DHT22;34227;51.840;4.146;2022-10-31T02:52:51;12.30;97.50
48416;DHT22;34227;51.840;4.146;2022-10-31T02:57:56;12.30;97.50
48416;DHT22;34227;51.840;4.146;2022-10-31T03:00:24;12.30;97.50
48416;DHT22;34227;51.840;4.146;2022-10-31T03:02:55;12.30;97.50
48416;DHT22;34227;51.840;4.146;2022-10-31T03:05:40;12.30;97.50
48416;DHT22;34227;51.840;4.146;2022-10-31T03:13:18;12.30;97.60
48416;DHT22;34227;51.840;4.146;2022-10-31T03:15:48;12.20;97.50
48416;DHT22;34227;51.840;4.146;2022-10-31T03:18:21;12.20;97.50
48416;DHT22;34227;51.840;4.146;2022-10-31T03:23:23;12.20;97.60
48416;DHT22;34227;51.840;4.146;2022-10-31T03:25:49;12.20;97.50
48416;DHT22;34227;51.840;4.146;2022-10-31T03:28:16;12.10;97.60
48416;DHT22;34227;51.840;4.146;2022-10-31T03:30:44;12.10;97.60
48416;DHT22;34227;51.840;4.146;2022-10-31T03:33:11;12.10;97.60
48416;DHT22;34227;51.840;4.146;2022-10-31T03:35:37;12.10;97.60
48416;DHT22;34227;51.840;4.146;2022-10-31T03:38:07;12.10;97.60
48416;DHT22;34227;51.840;4.146;2022-10-31T03:40:33;12.10;97.60
48416;DHT22;34227;51.840;4.146;2022-10-31T03:43:03;12.10;97.60
48416;DHT22;34227;51.840;4.146;2022-10-31T03:45:35;12.10;97.70
48416;DHT22;34227;51.840;4.146;2022-10-31T03:48:04;12.10;97.60
48416;DHT22;34227;51.840;4.146;2022-10-31T03:50:32;12.00;97.60
48416;DHT22;34227;51.840;4.146;2022-10-31T03:53:04;12.00;97.60
48416;DHT22;34227;51.840;4.146;2022-10-31T03:55:32;12.00;97.60
48416;DHT22;34227;51.840;4.146;2022-10-31T04:00:26;12.00;97.60
48416;DHT22;34227;51.840;4.146;2022-10-31T04:02:59;12.00;97.60
48416;DHT22;34227;51.840;4.146;2022-10-31T04:05:25;12.00;97.60
48416;DHT22;34227;51.840;4.146;2022-10-31T04:07:53;12.00;97.60
48416;DHT22;34227;51.840;4.146;2022-10-31T04:10:19;12.00;97.60
48416;DHT22;34227;51.840;4.146;2022-10-31T04:12:48;12.00;97.60
48416;DHT22;34227;51.840;4.146;2022-10-31T04:15:15;12.00;97.60
48416;DHT22;34227;51.840;4.146;2022-10-31T04:17:41;12.00;97.70
48416;DHT22;34227;51.840;4.146;2022-10-31T04:20:10;12.00;97.60
48416;DHT22;34227;51.840;4.146;2022-10-31T04:22:36;12.00;97.60
48416;DHT22;34227;51.840;4.146;2022-10-31T04:25:02;12.00;97.60
48416;DHT22;34227;51.840;4.146;2022-10-31T04:27:27;12.00;97.80
48416;DHT22;34227;51.840;4.146;2022-10-31T04:29:53;11.90;97.50
48416;DHT22;34227;51.840;4.146;2022-10-31T04:32:18;11.90;97.60
48416;DHT22;34227;51.840;4.146;2022-10-31T04:34:45;11.90;97.90
48416;DHT22;34227;51.840;4.146;2022-10-31T04:37:11;11.90;97.60
48416;DHT22;34227;51.840;4.146;2022-10-31T04:39:37;11.90;97.60
48416;DHT22;34227;51.840;4.146;2022-10-31T04:44:52;11.90;97.70
48416;DHT22;34227;51.840;4.146;2022-10-31T04:47:18;11.90;97.70
48416;DHT22;34227;51.840;4.146;2022-10-31T04:49:43;11.90;97.70
48416;DHT22;34227;51.840;4.146;2022-10-31T04:57:47;11.80;97.70
48416;DHT22;34227;51.840;4.146;2022-10-31T05:00:14;11.80;97.80
48416;DHT22;34227;51.840;4.146;2022-10-31T05:08:41;11.80;97.70
48416;DHT22;34227;51.840;4.146;2022-10-31T05:11:14;11.80;97.80
48416;DHT22;34227;51.840;4.146;2022-10-31T05:13:44;11.80;97.70
48416;DHT22;34227;51.840;4.146;2022-10-31T05:16:10;11.80;97.70
48416;DHT22;34227;51.840;4.146;2022-10-31T05:18:36;11.80;97.70
48416;DHT22;34227;51.840;4.146;2022-10-31T05:21:02;11.80;97.80
48416;DHT22;34227;51.840;4.146;2022-10-31T05:23:42;11.80;97.70
48416;DHT22;34227;51.840;4.146;2022-10-31T05:26:08;11.80;97.70
48416;DHT22;34227;51.840;4.146;2022-10-31T05:28:36;11.70;97.70
48416;DHT22;34227;51.840;4.146;2022-10-31T05:31:02;11.70;97.70
48416;DHT22;34227;51.840;4.146;2022-10-31T05:33:30;11.70;97.70
48416;DHT22;34227;51.840;4.146;2022-10-31T05:36:03;11.70;97.70
48416;DHT22;34227;51.840;4.146;2022-10-31T05:38:29;11.70;97.70
48416;DHT22;34227;51.840;4.146;2022-10-31T05:46:32;11.60;97.80
48416;DHT22;34227;51.840;4.146;2022-10-31T05:49:03;11.60;97.80
48416;DHT22;34227;51.840;4.146;2022-10-31T05:51:28;11.60;97.80
48416;DHT22;34227;51.840;4.146;2022-10-31T05:56:48;11.60;97.80
48416;DHT22;34227;51.840;4.146;2022-10-31T06:02:00;11.50;97.80
48416;DHT22;34227;51.840;4.146;2022-10-31T06:07:10;11.50;97.80
48416;DHT22;34227;51.840;4.146;2022-10-31T06:18:14;11.40;97.80
48416;DHT22;34227;51.840;4.146;2022-10-31T06:23:25;11.30;97.80
48416;DHT22;34227;51.840;4.146;2022-10-31T06:25:55;11.30;97.80
48416;DHT22;34227;51.840;4.146;2022-10-31T06:28:21;11.30;97.80
48416;DHT22;34227;51.840;4.146;2022-10-31T06:33:33;11.30;97.80
48416;DHT22;34227;51.840;4.146;2022-10-31T06:47:50;11.20;97.80
48416;DHT22;34227;51.840;4.146;2022-10-31T06:50:19;11.20;97.80
48416;DHT22;34227;51.840;4.146;2022-10-31T06:52:49;11.20;97.80
48416;DHT22;34227;51.840;4.146;2022-10-31T07:00:33;11.10;97.90
48416;DHT22;34227;51.840;4.146;2022-10-31T07:03:03;11.10;97.90
48416;DHT22;34227;51.840;4.146;2022-10-31T07:14:23;11.10;97.90
48416;DHT22;34227;51.840;4.146;2022-10-31T07:20:04;11.10;97.90
48416;DHT22;34227;51.840;4.146;2022-10-31T07:22:38;11.10;98.00
48416;DHT22;34227;51.840;4.146;2022-10-31T07:25:08;11.10;98.10
48416;DHT22;34227;51.840;4.146;2022-10-31T07:33:28;11.20;98.10
48416;DHT22;34227;51.840;4.146;2022-10-31T07:35:55;11.20;98.20
48416;DHT22;34227;51.840;4.146;2022-10-31T07:38:21;11.20;98.20
48416;DHT22;34227;51.840;4.146;2022-10-31T07:43:32;11.20;98.20
48416;DHT22;34227;51.840;4.146;2022-10-31T07:48:42;11.30;98.20
48416;DHT22;34227;51.840;4.146;2022-10-31T07:54:11;11.30;98.20
48416;DHT22;34227;51.840;4.146;2022-10-31T07:59:24;11.30;98.20
48416;DHT22;34227;51.840;4.146;2022-10-31T08:04:40;11.40;98.30
48416;DHT22;34227;51.840;4.146;2022-10-31T08:07:07;11.40;98.30
48416;DHT22;34227;51.840;4.146;2022-10-31T08:09:33;11.40;98.30
48416;DHT22;34227;51.840;4.146;2022-10-31T08:12:00;11.40;98.20
48416;DHT22;34227;51.840;4.146;2022-10-31T08:23:40;11.60;98.70
48416;DHT22;34227;51.840;4.146;2022-10-31T08:31:58;11.90;99.30
48416;DHT22;34227;51.840;4.146;2022-10-31T08:52:30;12.50;98.80
48416;DHT22;34227;51.840;4.146;2022-10-31T08:54:56;12.50;98.80
48416;DHT22;34227;51.840;4.146;2022-10-31T09:14:12;12.80;99.10
48416;DHT22;34227;51.840;4.146;2022-10-31T09:16:40;12.80;98.90
48416;DHT22;34227;51.840;4.146;2022-10-31T09:19:08;12.90;98.90
48416;DHT22;34227;51.840;4.146;2022-10-31T09:21:36;13.00;99.00
48416;DHT22;34227;51.840;4.146;2022-10-31T09:24:01;13.10;99.00
48416;DHT22;34227;51.840;4.146;2022-10-31T09:26:32;13.10;98.90
48416;DHT22;34227;51.840;4.146;2022-10-31T09:28:59;13.10;98.80
48416;DHT22;34227;51.840;4.146;2022-10-31T09:45:47;13.50;99.10
48416;DHT22;34227;51.840;4.146;2022-10-31T09:48:32;13.60;98.70
48416;DHT22;34227;51.840;4.146;2022-10-31T09:53:45;13.70;98.60
48416;DHT22;34227;51.840;4.146;2022-10-31T09:56:15;13.70;98.60
48416;DHT22;34227;51.840;4.146;2022-10-31T09:58:53;13.70;98.60
48416;DHT22;34227;51.840;4.146;2022-10-31T10:01:28;13.70;98.50
48416;DHT22;34227;51.840;4.146;2022-10-31T10:03:57;13.70;98.50
48416;DHT22;34227;51.840;4.146;2022-10-31T10:06:32;13.80;98.70
48416;DHT22;34227;51.840;4.146;2022-10-31T10:22:48;13.90;98.80
48416;DHT22;34227;51.840;4.146;2022-10-31T10:25:20;13.90;98.70
48416;DHT22;34227;51.840;4.146;2022-10-31T10:27:56;14.00;98.70
48416;DHT22;34227;51.840;4.146;2022-10-31T10:30:30;14.00;98.70
48416;DHT22;34227;51.840;4.146;2022-10-31T10:35:45;14.10;98.80
48416;DHT22;34227;51.840;4.146;2022-10-31T10:38:23;14.10;98.70
48416;DHT22;34227;51.840;4.146;2022-10-31T10:41:02;14.20;98.70
48416;DHT22;34227;51.840;4.146;2022-10-31T10:56:49;14.40;98.80
48416;DHT22;34227;51.840;4.146;2022-10-31T10:59:19;14.50;98.90
48416;DHT22;34227;51.840;4.146;2022-10-31T11:01:49;14.50;99.00
48416;DHT22;34227;51.840;4.146;2022-10-31T11:06:44;14.60;98.90
48416;DHT22;34227;51.840;4.146;2022-10-31T11:09:14;14.70;98.90
48416;DHT22;34227;51.840;4.146;2022-10-31T11:11:45;14.70;98.80
48416;DHT22;34227;51.840;4.146;2022-10-31T11:14:14;14.70;98.60
48416;DHT22;34227;51.840;4.146;2022-10-31T11:17:06;14.80;98.70
48416;DHT22;34227;51.840;4.146;2022-10-31T11:19:35;14.80;98.60
48416;DHT22;34227;51.840;4.146;2022-10-31T11:36:32;15.00;98.60
48416;DHT22;34227;51.840;4.146;2022-10-31T11:39:04;15.00;98.60
48416;DHT22;34227;51.840;4.146;2022-10-31T11:41:36;15.00;98.60
48416;DHT22;34227;51.840;4.146;2022-10-31T12:00:35;15.20;98.60
48416;DHT22;34227;51.840;4.146;2022-10-31T12:08:52;15.30;98.60
48416;DHT22;34227;51.840;4.146;2022-10-31T12:41:43;15.80;98.60
48416;DHT22;34227;51.840;4.146;2022-10-31T12:54:32;16.00;98.60
48416;DHT22;34227;51.840;4.146;2022-10-31T12:59:50;16.00;98.50
48416;DHT22;34227;51.840;4.146;2022-10-31T13:05:10;16.10;98.50
48416;DHT22;34227;51.840;4.146;2022-10-31T13:07:48;16.10;98.40
48416;DHT22;34227;51.840;4.146;2022-10-31T13:12:57;16.20;98.30
48416;DHT22;34227;51.840;4.146;2022-10-31T13:15:25;16.20;98.30
48416;DHT22;34227;51.840;4.146;2022-10-31T13:20:41;16.30;98.30
48416;DHT22;34227;51.840;4.146;2022-10-31T13:25:45;16.30;98.30
48416;DHT22;34227;51.840;4.146;2022-10-31T13:28:21;16.30;98.30
48416;DHT22;34227;51.840;4.146;2022-10-31T13:30:52;16.40;98.30
48416;DHT22;34227;51.840;4.146;2022-10-31T13:33:20;16.40;98.30
48416;DHT22;34227;51.840;4.146;2022-10-31T13:38:33;16.40;98.30
48416;DHT22;34227;51.840;4.146;2022-10-31T13:57:46;16.40;98.30
48416;DHT22;34227;51.840;4.146;2022-10-31T14:02:49;16.50;98.30
48416;DHT22;34227;51.840;4.146;2022-10-31T14:05:27;16.50;98.40
48416;DHT22;34227;51.840;4.146;2022-10-31T14:10:58;16.50;98.40
48416;DHT22;34227;51.840;4.146;2022-10-31T14:13:34;16.50;98.40
48416;DHT22;34227;51.840;4.146;2022-10-31T14:16:18;16.50;98.40
48416;DHT22;34227;51.840;4.146;2022-10-31T14:19:14;16.50;98.40
48416;DHT22;34227;51.840;4.146;2022-10-31T14:21:48;16.50;98.50
48416;DHT22;34227;51.840;4.146;2022-10-31T14:27:03;16.50;98.40
48416;DHT22;34227;51.840;4.146;2022-10-31T14:29:38;16.50;98.50
48416;DHT22;34227;51.840;4.146;2022-10-31T14:38:03;16.50;98.50
48416;DHT22;34227;51.840;4.146;2022-10-31T14:50:56;16.50;98.50
48416;DHT22;34227;51.840;4.146;2022-10-31T14:53:40;16.50;98.50
48416;DHT22;34227;51.840;4.146;2022-10-31T14:59:14;16.50;98.60
48416;DHT22;34227;51.840;4.146;2022-10-31T15:04:45;16.50;98.50
48416;DHT22;34227;51.840;4.146;2022-10-31T15:10:21;16.50;98.50
48416;DHT22;34227;51.840;4.146;2022-10-31T15:12:49;16.50;98.60
48416;DHT22;34227;51.840;4.146;2022-10-31T15:15:19;16.50;98.70
48416;DHT22;34227;51.840;4.146;2022-10-31T15:17:59;16.50;98.70
48416;DHT22;34227;51.840;4.146;2022-10-31T15:20:27;16.50;98.60
48416;DHT22;34227;51.840;4.146;2022-10-31T15:22:54;16.50;98.60
48416;DHT22;34227;51.840;4.146;2022-10-31T15:25:22;16.50;98.60
48416;DHT22;34227;51.840;4.146;2022-10-31T15:27:49;16.50;98.60
48416;DHT22;34227;51.840;4.146;2022-10-31T15:30:16;16.50;98.60
48416;DHT22;34227;51.840;4.146;2022-10-31T15:32:48;16.50;98.60
48416;DHT22;34227;51.840;4.146;2022-10-31T15:35:19;16.50;98.60
48416;DHT22;34227;51.840;4.146;2022-10-31T15:37:45;16.50;98.60
48416;DHT22;34227;51.840;4.146;2022-10-31T15:40:19;16.50;98.60
48416;DHT22;34227;51.840;4.146;2022-10-31T15:42:50;16.50;98.60
48416;DHT22;34227;51.840;4.146;2022-10-31T15:45:21;16.50;98.60
48416;DHT22;34227;51.840;4.146;2022-10-31T15:48:12;16.40;98.60
48416;DHT22;34227;51.840;4.146;2022-10-31T15:50:39;16.40;98.60
48416;DHT22;34227;51.840;4.146;2022-10-31T15:53:06;16.40;98.60
48416;DHT22;34227;51.840;4.146;2022-10-31T15:55:47;16.40;98.60
48416;DHT22;34227;51.840;4.146;2022-10-31T15:58:17;16.40;98.60
48416;DHT22;34227;51.840;4.146;2022-10-31T16:01:00;16.40;98.60
48416;DHT22;34227;51.840;4.146;2022-10-31T16:03:28;16.30;98.70
48416;DHT22;34227;51.840;4.146;2022-10-31T16:05:59;16.30;98.60
48416;DHT22;34227;51.840;4.146;2022-10-31T16:08:34;16.30;99.10
48416;DHT22;34227;51.840;4.146;2022-10-31T16:11:47;16.30;98.80
48416;DHT22;34227;51.840;4.146;2022-10-31T16:13:58;16.30;98.80
48416;DHT22;34227;51.840;4.146;2022-10-31T16:16:24;16.30;98.80
48416;DHT22;34227;51.840;4.146;2022-10-31T16:19:00;16.30;98.80
48416;DHT22;34227;51.840;4.146;2022-10-31T16:21:27;16.30;98.90
48416;DHT22;34227;51.840;4.146;2022-10-31T16:23:56;16.30;98.90
48416;DHT22;34227;51.840;4.146;2022-10-31T16:26:23;16.30;98.90
48416;DHT22;34227;51.840;4.146;2022-10-31T16:28:52;16.30;98.90
48416;DHT22;34227;51.840;4.146;2022-10-31T16:31:24;16.20;98.90
48416;DHT22;34227;51.840;4.146;2022-10-31T16:33:51;16.20;98.90
48416;DHT22;34227;51.840;4.146;2022-10-31T16:39:13;16.20;99.00
48416;DHT22;34227;51.840;4.146;2022-10-31T16:41:42;16.20;99.00
48416;DHT22;34227;51.840;4.146;2022-10-31T16:58:47;16.20;99.20
48416;DHT22;34227;51.840;4.146;2022-10-31T17:01:13;16.10;99.20
48416;DHT22;34227;51.840;4.146;2022-10-31T17:06:27;16.10;99.20
48416;DHT22;34227;51.840;4.146;2022-10-31T17:08:52;16.10;99.20
48416;DHT22;34227;51.840;4.146;2022-10-31T17:11:19;16.10;99.20
48416;DHT22;34227;51.840;4.146;2022-10-31T17:13:46;16.00;99.20
48416;DHT22;34227;51.840;4.146;2022-10-31T17:16:12;16.00;99.20
48416;DHT22;34227;51.840;4.146;2022-10-31T17:18:38;16.00;99.20
48416;DHT22;34227;51.840;4.146;2022-10-31T17:21:04;16.00;99.20
48416;DHT22;34227;51.840;4.146;2022-10-31T17:23:34;16.00;99.20
48416;DHT22;34227;51.840;4.146;2022-10-31T17:35:12;15.90;99.20
48416;DHT22;34227;51.840;4.146;2022-10-31T17:37:38;15.90;99.20
48416;DHT22;34227;51.840;4.146;2022-10-31T17:45:57;15.80;99.20
48416;DHT22;34227;51.840;4.146;2022-10-31T17:48:26;15.90;99.20
48416;DHT22;34227;51.840;4.146;2022-10-31T18:00:22;15.80;99.20
48416;DHT22;34227;51.840;4.146;2022-10-31T18:02:49;15.80;99.10
48416;DHT22;34227;51.840;4.146;2022-10-31T18:05:15;15.70;99.00
48416;DHT22;34227;51.840;4.146;2022-10-31T18:07:40;15.70;99.00
48416;DHT22;34227;51.840;4.146;2022-10-31T18:10:06;15.70;99.00
48416;DHT22;34227;51.840;4.146;2022-10-31T18:12:33;15.70;98.90
48416;DHT22;34227;51.840;4.146;2022-10-31T18:14:59;15.70;99.00
48416;DHT22;34227;51.840;4.146;2022-10-31T18:17:25;15.70;99.00
48416;DHT22;34227;51.840;4.146;2022-10-31T18:19:51;15.70;99.00
48416;DHT22;34227;51.840;4.146;2022-10-31T18:22:16;15.70;99.30
48416;DHT22;34227;51.840;4.146;2022-10-31T18:24:42;15.70;98.90
48416;DHT22;34227;51.840;4.146;2022-10-31T18:27:08;15.60;98.90
48416;DHT22;34227;51.840;4.146;2022-10-31T18:29:33;15.60;98.90
48416;DHT22;34227;51.840;4.146;2022-10-31T18:32:01;15.60;98.90
48416;DHT22;34227;51.840;4.146;2022-10-31T18:37:30;15.50;98.90
48416;DHT22;34227;51.840;4.146;2022-10-31T18:39:56;15.60;98.90
48416;DHT22;34227;51.840;4.146;2022-10-31T18:42:27;15.50;98.90
48416;DHT22;34227;51.840;4.146;2022-10-31T18:44:53;15.50;98.90
48416;DHT22;34227;51.840;4.146;2022-10-31T18:47:18;15.50;98.90
48416;DHT22;34227;51.840;4.146;2022-10-31T18:49:44;15.50;98.80
48416;DHT22;34227;51.840;4.146;2022-10-31T18:52:10;15.50;98.90
48416;DHT22;34227;51.840;4.146;2022-10-31T18:54:35;15.40;98.90
48416;DHT22;34227;51.840;4.146;2022-10-31T18:57:01;15.40;98.80
48416;DHT22;34227;51.840;4.146;2022-10-31T18:59:26;15.40;98.80
48416;DHT22;34227;51.840;4.146;2022-10-31T19:01:52;15.40;98.80
48416;DHT22;34227;51.840;4.146;2022-10-31T19:04:18;15.40;98.80
48416;DHT22;34227;51.840;4.146;2022-10-31T19:06:43;15.40;98.90
48416;DHT22;34227;51.840;4.146;2022-10-31T19:09:09;15.40;98.80
48416;DHT22;34227;51.840;4.146;2022-10-31T19:11:37;15.40;98.80
48416;DHT22;34227;51.840;4.146;2022-10-31T19:14:03;15.30;98.90
48416;DHT22;34227;51.840;4.146;2022-10-31T19:16:29;15.30;98.90
48416;DHT22;34227;51.840;4.146;2022-10-31T19:18:59;15.30;98.90
48416;DHT22;34227;51.840;4.146;2022-10-31T19:21:24;15.30;98.90
48416;DHT22;34227;51.840;4.146;2022-10-31T19:23:51;15.30;98.90
48416;DHT22;34227;51.840;4.146;2022-10-31T19:26:20;15.20;98.90
48416;DHT22;34227;51.840;4.146;2022-10-31T19:28:50;15.20;98.60
48416;DHT22;34227;51.840;4.146;2022-10-31T19:31:51;15.20;99.00
48416;DHT22;34227;51.840;4.146;2022-10-31T19:34:20;15.20;99.00
48416;DHT22;34227;51.840;4.146;2022-10-31T19:36:46;15.20;99.00
48416;DHT22;34227;51.840;4.146;2022-10-31T19:39:12;15.10;99.00
48416;DHT22;34227;51.840;4.146;2022-10-31T19:41:37;15.10;99.00
48416;DHT22;34227;51.840;4.146;2022-10-31T19:44:03;15.20;99.10
48416;DHT22;34227;51.840;4.146;2022-10-31T19:46:29;15.10;99.00
48416;DHT22;34227;51.840;4.146;2022-10-31T19:48:54;15.10;99.00
48416;DHT22;34227;51.840;4.146;2022-10-31T19:51:21;15.00;99.00
48416;DHT22;34227;51.840;4.146;2022-10-31T19:53:47;15.10;99.00
48416;DHT22;34227;51.840;4.146;2022-10-31T19:56:14;15.10;99.10
48416;DHT22;34227;51.840;4.146;2022-10-31T19:58:40;15.00;99.10
48416;DHT22;34227;51.840;4.146;2022-10-31T20:01:09;15.00;99.10
48416;DHT22;34227;51.840;4.146;2022-10-31T20:03:37;15.00;99.10
48416;DHT22;34227;51.840;4.146;2022-10-31T20:06:06;15.00;99.10
48416;DHT22;34227;51.840;4.146;2022-10-31T20:08:37;15.00;99.20
48416;DHT22;34227;51.840;4.146;2022-10-31T20:11:02;15.00;99.30
48416;DHT22;34227;51.840;4.146;2022-10-31T20:13:28;15.00;99.30
48416;DHT22;34227;51.840;4.146;2022-10-31T20:15:58;15.00;99.20
48416;DHT22;34227;51.840;4.146;2022-10-31T20:18:24;15.00;99.30
48416;DHT22;34227;51.840;4.146;2022-10-31T20:20:50;15.00;99.30
48416;DHT22;34227;51.840;4.146;2022-10-31T20:23:17;15.00;99.30
48416;DHT22;34227;51.840;4.146;2022-10-31T20:25:46;15.00;99.30
48416;DHT22;34227;51.840;4.146;2022-10-31T20:28:12;15.00;99.30
48416;DHT22;34227;51.840;4.146;2022-10-31T20:30:37;15.00;99.40
48416;DHT22;34227;51.840;4.146;2022-10-31T20:33:03;15.00;99.30
48416;DHT22;34227;51.840;4.146;2022-10-31T20:35:28;15.00;99.30
48416;DHT22;34227;51.840;4.146;2022-10-31T20:37:54;15.00;99.40
48416;DHT22;34227;51.840;4.146;2022-10-31T20:40:20;15.00;99.20
48416;DHT22;34227;51.840;4.146;2022-10-31T20:42:47;15.00;99.30
48416;DHT22;34227;51.840;4.146;2022-10-31T20:45:12;15.00;99.30
48416;DHT22;34227;51.840;4.146;2022-10-31T20:47:38;15.00;99.30
48416;DHT22;34227;51.840;4.146;2022-10-31T20:50:03;15.00;99.30
48416;DHT22;34227;51.840;4.146;2022-10-31T20:52:29;15.00;99.40
48416;DHT22;34227;51.840;4.146;2022-10-31T20:54:55;15.00;99.30
48416;DHT22;34227;51.840;4.146;2022-10-31T20:57:20;15.00;99.30
48416;DHT22;34227;51.840;4.146;2022-10-31T20:59:46;15.00;99.30
48416;DHT22;34227;51.840;4.146;2022-10-31T21:02:11;15.00;99.30
48416;DHT22;34227;51.840;4.146;2022-10-31T21:04:37;15.00;99.40
48416;DHT22;34227;51.840;4.146;2022-10-31T21:07:02;15.00;99.30
48416;DHT22;34227;51.840;4.146;2022-10-31T21:09:28;15.00;99.30
48416;DHT22;34227;51.840;4.146;2022-10-31T21:11:54;15.00;99.40
48416;DHT22;34227;51.840;4.146;2022-10-31T21:14:19;15.00;99.40
48416;DHT22;34227;51.840;4.146;2022-10-31T21:16:45;15.00;99.40
48416;DHT22;34227;51.840;4.146;2022-10-31T21:19:10;15.00;99.40
48416;DHT22;34227;51.840;4.146;2022-10-31T21:21:37;15.00;99.50
48416;DHT22;34227;51.840;4.146;2022-10-31T21:24:04;15.00;99.50
48416;DHT22;34227;51.840;4.146;2022-10-31T21:26:31;15.00;99.50
48416;DHT22;34227;51.840;4.146;2022-10-31T21:28:57;15.00;99.60
48416;DHT22;34227;51.840;4.146;2022-10-31T21:31:23;15.00;99.60
48416;DHT22;34227;51.840;4.146;2022-10-31T21:33:49;15.00;99.60
48416;DHT22;34227;51.840;4.146;2022-10-31T21:36:15;15.10;99.60
48416;DHT22;34227;51.840;4.146;2022-10-31T21:38:41;15.00;99.50
48416;DHT22;34227;51.840;4.146;2022-10-31T21:41:11;15.00;99.60
48416;DHT22;34227;51.840;4.146;2022-10-31T21:43:43;15.10;99.60
48416;DHT22;34227;51.840;4.146;2022-10-31T21:46:13;15.10;99.70
48416;DHT22;34227;51.840;4.146;2022-10-31T21:48:42;15.10;99.70
48416;DHT22;34227;51.840;4.146;2022-10-31T21:51:09;15.10;99.70
48416;DHT22;34227;51.840;4.146;2022-10-31T21:53:35;15.10;99.60
48416;DHT22;34227;51.840;4.146;2022-10-31T21:56:19;15.10;99.60
48416;DHT22;34227;51.840;4.146;2022-10-31T21:58:45;15.20;99.70
48416;DHT22;34227;51.840;4.146;2022-10-31T22:01:11;15.20;99.80
48416;DHT22;34227;51.840;4.146;2022-10-31T22:06:31;15.20;99.80
48416;DHT22;34227;51.840;4.146;2022-10-31T22:09:04;15.20;99.80
48416;DHT22;34227;51.840;4.146;2022-10-31T22:11:49;15.20;99.70
48416;DHT22;34227;51.840;4.146;2022-10-31T22:14:14;15.20;99.70
48416;DHT22;34227;51.840;4.146;2022-10-31T22:16:40;15.20;99.70
48416;DHT22;34227;51.840;4.146;2022-10-31T22:19:06;15.20;99.60
48416;DHT22;34227;51.840;4.146;2022-10-31T22:21:39;15.20;99.60
48416;DHT22;34227;51.840;4.146;2022-10-31T22:24:05;15.20;99.60
48416;DHT22;34227;51.840;4.146;2022-10-31T22:29:24;15.30;99.70
48416;DHT22;34227;51.840;4.146;2022-10-31T22:31:51;15.20;99.70
48416;DHT22;34227;51.840;4.146;2022-10-31T22:34:17;15.30;99.70
48416;DHT22;34227;51.840;4.146;2022-10-31T22:36:43;15.30;99.60
48416;DHT22;34227;51.840;4.146;2022-10-31T22:39:09;15.30;99.60
48416;DHT22;34227;51.840;4.146;2022-10-31T22:41:35;15.30;99.70
48416;DHT22;34227;51.840;4.146;2022-10-31T22:44:01;15.30;99.60
48416;DHT22;34227;51.840;4.146;2022-10-31T22:46:28;15.30;99.60
48416;DHT22;34227;51.840;4.146;2022-10-31T22:49:01;15.30;99.50
48416;DHT22;34227;51.840;4.146;2022-10-31T22:51:38;15.40;99.50
48416;DHT22;34227;51.840;4.146;2022-10-31T22:54:20;15.40;99.60
48416;DHT22;34227;51.840;4.146;2022-10-31T22:56:47;15.30;99.50
48416;DHT22;34227;51.840;4.146;2022-10-31T22:59:26;15.40;99.50